sensor_id;sensor_type;location;lat;lon;timestamp;pressure;altitude;pressure_sealevel;temperature;humidity
74778;BME280;63298;53.164;8.610;2023-01-10T00:02:24;100931.00;;;6.24;85.17
74778;BME280;63298;53.164;8.610;2023-01-10T00:04:49;100930.34;;;6.22;85.12
74778;BME280;63298;53.164;8.610;2023-01-10T00:07:15;100938.19;;;6.25;84.85
74778;BME280;63298;53.164;8.610;2023-01-10T00:09:40;100945.13;;;6.21;84.91
74778;BME280;63298;53.164;8.610;2023-01-10T00:12:06;100944.69;;;6.24;85.38
74778;BME280;63298;53.164;8.610;2023-01-10T00:14:31;100954.19;;;6.28;85.47
74778;BME280;63298;53.164;8.610;2023-01-10T00:16:56;100965.56;;;6.32;85.53
74778;BME280;63298;53.164;8.610;2023-01-10T00:19:22;100957.56;;;6.30;85.09
74778;BME280;63298;53.164;8.610;2023-01-10T00:21:47;100973.59;;;6.33;85.39
74778;BME280;63298;53.164;8.610;2023-01-10T00:24:12;100980.75;;;6.34;84.92
74778;BME280;63298;53.164;8.610;2023-01-10T00:26:38;100982.22;;;6.30;85.41
74778;BME280;63298;53.164;8.610;2023-01-10T00:29:03;100986.22;;;6.28;84.84
74778;BME280;63298;53.164;8.610;2023-01-10T00:31:30;100992.13;;;6.25;85.11
74778;BME280;63298;53.164;8.610;2023-01-10T00:33:55;100995.91;;;6.24;85.80
74778;BME280;63298;53.164;8.610;2023-01-10T00:36:20;100999.47;;;6.24;85.50
74778;BME280;63298;53.164;8.610;2023-01-10T00:38:46;101004.97;;;6.24;85.71
74778;BME280;63298;53.164;8.610;2023-01-10T00:41:11;101013.78;;;6.20;85.43
74778;BME280;63298;53.164;8.610;2023-01-10T00:43:37;101019.69;;;6.23;85.20
74778;BME280;63298;53.164;8.610;2023-01-10T00:46:02;101024.97;;;6.25;85.85
74778;BME280;63298;53.164;8.610;2023-01-10T00:48:27;101022.25;;;6.25;85.84
74778;BME280;63298;53.164;8.610;2023-01-10T00:50:53;101020.34;;;6.25;85.64
74778;BME280;63298;53.164;8.610;2023-01-10T00:53:19;101018.63;;;6.18;86.38
74778;BME280;63298;53.164;8.610;2023-01-10T00:55:44;101027.69;;;6.18;85.60
74778;BME280;63298;53.164;8.610;2023-01-10T00:58:10;101021.97;;;6.13;85.45
74778;BME280;63298;53.164;8.610;2023-01-10T01:00:37;101036.94;;;6.17;86.06
74778;BME280;63298;53.164;8.610;2023-01-10T01:03:04;101043.06;;;6.19;86.17
74778;BME280;63298;53.164;8.610;2023-01-10T01:05:29;101043.72;;;6.21;85.43
74778;BME280;63298;53.164;8.610;2023-01-10T01:07:54;101044.78;;;6.20;85.17
74778;BME280;63298;53.164;8.610;2023-01-10T01:10:20;101061.81;;;6.22;85.36
74778;BME280;63298;53.164;8.610;2023-01-10T01:12:45;101068.38;;;6.21;85.84
74778;BME280;63298;53.164;8.610;2023-01-10T01:15:11;101074.06;;;6.20;85.47
74778;BME280;63298;53.164;8.610;2023-01-10T01:17:36;101076.75;;;6.13;86.08
74778;BME280;63298;53.164;8.610;2023-01-10T01:20:02;101086.66;;;6.14;85.49
74778;BME280;63298;53.164;8.610;2023-01-10T01:22:29;101093.41;;;6.12;86.31
74778;BME280;63298;53.164;8.610;2023-01-10T01:24:54;101100.78;;;6.11;86.07
74778;BME280;63298;53.164;8.610;2023-01-10T01:27:21;101108.75;;;6.13;85.58
74778;BME280;63298;53.164;8.610;2023-01-10T01:29:47;101115.56;;;6.17;85.26
74778;BME280;63298;53.164;8.610;2023-01-10T01:32:13;101118.47;;;6.15;85.58
74778;BME280;63298;53.164;8.610;2023-01-10T01:34:38;101122.47;;;6.13;85.21
74778;BME280;63298;53.164;8.610;2023-01-10T01:37:03;101124.16;;;6.14;85.87
74778;BME280;63298;53.164;8.610;2023-01-10T01:39:28;101137.84;;;6.14;85.07
74778;BME280;63298;53.164;8.610;2023-01-10T01:41:54;101143.75;;;6.11;85.08
74778;BME280;63298;53.164;8.610;2023-01-10T01:44:19;101143.94;;;6.09;85.33
74778;BME280;63298;53.164;8.610;2023-01-10T01:46:49;101156.97;;;6.07;85.97
74778;BME280;63298;53.164;8.610;2023-01-10T01:49:20;101151.47;;;6.00;85.99
74778;BME280;63298;53.164;8.610;2023-01-10T01:51:48;101159.88;;;5.99;86.18
74778;BME280;63298;53.164;8.610;2023-01-10T01:54:15;101163.00;;;5.96;85.76
74778;BME280;63298;53.164;8.610;2023-01-10T01:59:33;101160.28;;;5.96;85.72
74778;BME280;63298;53.164;8.610;2023-01-10T02:02:05;101175.44;;;5.98;85.76
74778;BME280;63298;53.164;8.610;2023-01-10T02:04:53;101185.34;;;5.99;85.58
74778;BME280;63298;53.164;8.610;2023-01-10T02:07:21;101186.47;;;6.05;85.13
74778;BME280;63298;53.164;8.610;2023-01-10T02:10:01;101187.94;;;6.07;85.07
74778;BME280;63298;53.164;8.610;2023-01-10T02:12:29;101190.47;;;6.09;85.07
74778;BME280;63298;53.164;8.610;2023-01-10T02:14:56;101186.72;;;6.10;85.01
74778;BME280;63298;53.164;8.610;2023-01-10T02:17:22;101182.25;;;6.09;84.68
74778;BME280;63298;53.164;8.610;2023-01-10T02:19:55;101193.88;;;6.11;84.53
74778;BME280;63298;53.164;8.610;2023-01-10T02:34:23;101211.25;;;5.97;85.34
74778;BME280;63298;53.164;8.610;2023-01-10T02:37:15;101214.63;;;5.99;84.94
74778;BME280;63298;53.164;8.610;2023-01-10T02:41:04;101233.16;;;5.97;85.19
74778;BME280;63298;53.164;8.610;2023-01-10T02:43:07;101230.78;;;5.94;84.83
74778;BME280;63298;53.164;8.610;2023-01-10T02:45:54;101229.50;;;5.90;84.60
74778;BME280;63298;53.164;8.610;2023-01-10T02:48:21;101226.28;;;5.86;85.43
74778;BME280;63298;53.164;8.610;2023-01-10T02:53:26;101222.00;;;5.77;85.44
74778;BME280;63298;53.164;8.610;2023-01-10T03:06:55;101236.72;;;5.76;85.90
74778;BME280;63298;53.164;8.610;2023-01-10T03:09:37;101245.97;;;5.75;86.31
74778;BME280;63298;53.164;8.610;2023-01-10T03:12:15;101247.44;;;5.78;86.07
74778;BME280;63298;53.164;8.610;2023-01-10T03:14:46;101236.50;;;5.78;86.19
74778;BME280;63298;53.164;8.610;2023-01-10T03:17:13;101247.25;;;5.79;85.92
74778;BME280;63298;53.164;8.610;2023-01-10T03:19:47;101243.69;;;5.79;85.54
74778;BME280;63298;53.164;8.610;2023-01-10T03:22:16;101259.16;;;5.86;86.23
74778;BME280;63298;53.164;8.610;2023-01-10T03:24:44;101255.38;;;5.87;85.72
74778;BME280;63298;53.164;8.610;2023-01-10T03:27:19;101261.22;;;5.84;85.96
74778;BME280;63298;53.164;8.610;2023-01-10T03:29:54;101260.19;;;5.85;85.82
74778;BME280;63298;53.164;8.610;2023-01-10T03:32:25;101262.47;;;5.82;85.84
74778;BME280;63298;53.164;8.610;2023-01-10T03:34:53;101285.66;;;5.86;86.13
74778;BME280;63298;53.164;8.610;2023-01-10T03:40:03;101296.44;;;5.87;85.49
74778;BME280;63298;53.164;8.610;2023-01-10T03:42:55;101302.75;;;5.88;84.90
74778;BME280;63298;53.164;8.610;2023-01-10T03:45:50;101311.16;;;5.86;85.16
74778;BME280;63298;53.164;8.610;2023-01-10T03:48:18;101319.56;;;5.85;86.18
74778;BME280;63298;53.164;8.610;2023-01-10T03:50:45;101324.19;;;5.84;84.99
74778;BME280;63298;53.164;8.610;2023-01-10T03:53:13;101324.56;;;5.81;84.71
74778;BME280;63298;53.164;8.610;2023-01-10T03:55:40;101318.63;;;5.78;84.85
74778;BME280;63298;53.164;8.610;2023-01-10T03:58:06;101322.03;;;5.80;85.10
74778;BME280;63298;53.164;8.610;2023-01-10T04:00:32;101337.41;;;5.81;85.08
74778;BME280;63298;53.164;8.610;2023-01-10T04:02:57;101337.59;;;5.79;84.77
74778;BME280;63298;53.164;8.610;2023-01-10T04:05:23;101343.06;;;5.79;85.15
74778;BME280;63298;53.164;8.610;2023-01-10T04:07:48;101346.00;;;5.78;85.40
74778;BME280;63298;53.164;8.610;2023-01-10T04:10:14;101352.53;;;5.77;85.06
74778;BME280;63298;53.164;8.610;2023-01-10T04:12:40;101357.78;;;5.78;85.54
74778;BME280;63298;53.164;8.610;2023-01-10T04:15:06;101353.75;;;5.74;85.42
74778;BME280;63298;53.164;8.610;2023-01-10T04:17:32;101372.34;;;5.79;84.90
74778;BME280;63298;53.164;8.610;2023-01-10T04:19:57;101371.03;;;5.75;85.62
74778;BME280;63298;53.164;8.610;2023-01-10T04:22:22;101373.38;;;5.78;85.29
74778;BME280;63298;53.164;8.610;2023-01-10T04:24:48;101375.06;;;5.79;85.53
74778;BME280;63298;53.164;8.610;2023-01-10T04:27:14;101379.50;;;5.80;85.63
74778;BME280;63298;53.164;8.610;2023-01-10T04:29:39;101374.72;;;5.82;85.75
74778;BME280;63298;53.164;8.610;2023-01-10T04:32:05;101378.25;;;5.82;85.63
74778;BME280;63298;53.164;8.610;2023-01-10T04:34:30;101384.59;;;5.83;85.04
74778;BME280;63298;53.164;8.610;2023-01-10T04:36:55;101387.31;;;5.83;85.39
74778;BME280;63298;53.164;8.610;2023-01-10T04:39:21;101383.09;;;5.80;85.19
74778;BME280;63298;53.164;8.610;2023-01-10T04:41:46;101387.31;;;5.83;85.11
74778;BME280;63298;53.164;8.610;2023-01-10T04:44:11;101395.34;;;5.84;85.12
74778;BME280;63298;53.164;8.610;2023-01-10T04:46:37;101394.50;;;5.84;85.01
74778;BME280;63298;53.164;8.610;2023-01-10T04:49:02;101399.13;;;5.83;84.82
74778;BME280;63298;53.164;8.610;2023-01-10T04:51:27;101405.13;;;5.87;85.17
74778;BME280;63298;53.164;8.610;2023-01-10T04:53:53;101400.38;;;5.81;84.52
74778;BME280;63298;53.164;8.610;2023-01-10T04:56:20;101408.38;;;5.82;84.56
74778;BME280;63298;53.164;8.610;2023-01-10T04:58:47;101418.50;;;5.82;84.77
74778;BME280;63298;53.164;8.610;2023-01-10T05:01:15;101413.41;;;5.79;85.35
74778;BME280;63298;53.164;8.610;2023-01-10T05:03:46;101416.13;;;5.79;84.42
74778;BME280;63298;53.164;8.610;2023-01-10T05:06:11;101418.88;;;5.79;85.13
74778;BME280;63298;53.164;8.610;2023-01-10T05:08:37;101420.97;;;5.77;84.73
74778;BME280;63298;53.164;8.610;2023-01-10T05:11:02;101425.94;;;5.73;84.88
74778;BME280;63298;53.164;8.610;2023-01-10T05:13:27;101424.06;;;5.74;85.06
74778;BME280;63298;53.164;8.610;2023-01-10T05:15:54;101430.66;;;5.79;84.99
74778;BME280;63298;53.164;8.610;2023-01-10T05:18:19;101433.22;;;5.81;84.83
74778;BME280;63298;53.164;8.610;2023-01-10T05:20:45;101442.66;;;5.78;84.52
74778;BME280;63298;53.164;8.610;2023-01-10T05:23:10;101441.63;;;5.79;84.71
74778;BME280;63298;53.164;8.610;2023-01-10T05:25:36;101447.09;;;5.79;85.17
74778;BME280;63298;53.164;8.610;2023-01-10T05:28:01;101443.72;;;5.77;84.77
74778;BME280;63298;53.164;8.610;2023-01-10T05:30:26;101456.72;;;5.75;84.56
74778;BME280;63298;53.164;8.610;2023-01-10T05:32:52;101473.34;;;5.74;85.10
74778;BME280;63298;53.164;8.610;2023-01-10T05:35:17;101474.38;;;5.73;84.98
74778;BME280;63298;53.164;8.610;2023-01-10T05:37:42;101486.00;;;5.75;84.54
74778;BME280;63298;53.164;8.610;2023-01-10T05:40:08;101485.13;;;5.74;84.52
74778;BME280;63298;53.164;8.610;2023-01-10T05:42:33;101489.19;;;5.78;84.75
74778;BME280;63298;53.164;8.610;2023-01-10T05:44:59;101490.72;;;5.81;84.37
74778;BME280;63298;53.164;8.610;2023-01-10T05:47:24;101498.34;;;5.85;84.59
74778;BME280;63298;53.164;8.610;2023-01-10T05:49:49;101488.44;;;5.84;84.76
74778;BME280;63298;53.164;8.610;2023-01-10T05:52:15;101486.94;;;5.82;84.31
74778;BME280;63298;53.164;8.610;2023-01-10T05:54:40;101498.22;;;5.87;84.33
74778;BME280;63298;53.164;8.610;2023-01-10T05:57:05;101501.94;;;5.86;84.50
74778;BME280;63298;53.164;8.610;2023-01-10T05:59:31;101507.06;;;5.89;84.57
74778;BME280;63298;53.164;8.610;2023-01-10T06:01:56;101501.59;;;5.89;84.67
74778;BME280;63298;53.164;8.610;2023-01-10T06:04:21;101507.06;;;5.89;84.73
74778;BME280;63298;53.164;8.610;2023-01-10T06:06:47;101518.88;;;5.89;85.18
74778;BME280;63298;53.164;8.610;2023-01-10T06:09:12;101514.63;;;5.87;85.25
74778;BME280;63298;53.164;8.610;2023-01-10T06:11:38;101520.56;;;5.90;84.65
74778;BME280;63298;53.164;8.610;2023-01-10T06:14:04;101521.22;;;5.92;84.81
74778;BME280;63298;53.164;8.610;2023-01-10T06:16:30;101522.06;;;5.93;84.81
74778;BME280;63298;53.164;8.610;2023-01-10T06:18:55;101524.44;;;5.96;85.06
74778;BME280;63298;53.164;8.610;2023-01-10T06:21:20;101523.78;;;5.94;85.11
74778;BME280;63298;53.164;8.610;2023-01-10T06:23:46;101533.28;;;5.98;84.77
74778;BME280;63298;53.164;8.610;2023-01-10T06:26:11;101537.56;;;6.00;85.26
74778;BME280;63298;53.164;8.610;2023-01-10T06:28:37;101537.75;;;5.99;84.94
74778;BME280;63298;53.164;8.610;2023-01-10T06:31:02;101539.63;;;5.98;85.48
74778;BME280;63298;53.164;8.610;2023-01-10T06:33:28;101549.81;;;6.04;85.13
74778;BME280;63298;53.164;8.610;2023-01-10T06:35:53;101545.19;;;6.05;85.12
74778;BME280;63298;53.164;8.610;2023-01-10T06:38:18;101551.31;;;6.07;85.06
74778;BME280;63298;53.164;8.610;2023-01-10T06:40:44;101557.47;;;6.09;85.44
74778;BME280;63298;53.164;8.610;2023-01-10T06:43:09;101557.66;;;6.07;85.14
74778;BME280;63298;53.164;8.610;2023-01-10T06:45:34;101554.91;;;6.07;84.73
74778;BME280;63298;53.164;8.610;2023-01-10T06:48:00;101559.34;;;6.08;84.79
74778;BME280;63298;53.164;8.610;2023-01-10T06:50:25;101569.28;;;6.10;84.45
74778;BME280;63298;53.164;8.610;2023-01-10T06:52:58;101565.00;;;6.07;85.09
74778;BME280;63298;53.164;8.610;2023-01-10T06:55:24;101574.38;;;6.13;84.51
74778;BME280;63298;53.164;8.610;2023-01-10T06:58:01;101576.06;;;6.14;84.92
74778;BME280;63298;53.164;8.610;2023-01-10T07:00:28;101579.66;;;6.14;84.31
74778;BME280;63298;53.164;8.610;2023-01-10T07:02:56;101565.28;;;6.12;84.93
74778;BME280;63298;53.164;8.610;2023-01-10T07:05:22;101572.31;;;6.15;84.71
74778;BME280;63298;53.164;8.610;2023-01-10T07:07:47;101577.09;;;6.13;84.52
74778;BME280;63298;53.164;8.610;2023-01-10T07:10:13;101584.47;;;6.12;84.58
74778;BME280;63298;53.164;8.610;2023-01-10T07:12:38;101580.63;;;6.06;84.16
74778;BME280;63298;53.164;8.610;2023-01-10T07:15:04;101587.78;;;6.07;84.95
74778;BME280;63298;53.164;8.610;2023-01-10T07:17:30;101587.41;;;6.11;84.22
74778;BME280;63298;53.164;8.610;2023-01-10T07:19:55;101587.59;;;6.09;84.65
74778;BME280;63298;53.164;8.610;2023-01-10T07:22:20;101593.25;;;6.07;84.27
74778;BME280;63298;53.164;8.610;2023-01-10T07:24:46;101601.47;;;6.07;84.97
74778;BME280;63298;53.164;8.610;2023-01-10T07:27:11;101601.13;;;6.11;84.43
74778;BME280;63298;53.164;8.610;2023-01-10T07:29:37;101600.91;;;6.12;84.61
74778;BME280;63298;53.164;8.610;2023-01-10T07:32:02;101589.88;;;6.05;84.58
74778;BME280;63298;53.164;8.610;2023-01-10T07:34:28;101608.09;;;6.13;84.17
74778;BME280;63298;53.164;8.610;2023-01-10T07:36:53;101614.41;;;6.14;84.26
74778;BME280;63298;53.164;8.610;2023-01-10T07:39:18;101615.44;;;6.13;84.72
74778;BME280;63298;53.164;8.610;2023-01-10T07:41:49;101621.13;;;6.11;85.16
74778;BME280;63298;53.164;8.610;2023-01-10T07:44:15;101619.25;;;6.12;84.45
74778;BME280;63298;53.164;8.610;2023-01-10T07:46:40;101617.16;;;6.14;84.31
74778;BME280;63298;53.164;8.610;2023-01-10T07:49:06;101636.44;;;6.20;84.77
74778;BME280;63298;53.164;8.610;2023-01-10T07:51:31;101635.41;;;6.21;84.17
74778;BME280;63298;53.164;8.610;2023-01-10T07:53:57;101641.06;;;6.20;84.21
74778;BME280;63298;53.164;8.610;2023-01-10T07:56:22;101649.91;;;6.22;85.30
74778;BME280;63298;53.164;8.610;2023-01-10T07:58:48;101648.59;;;6.18;85.16
74778;BME280;63298;53.164;8.610;2023-01-10T08:01:13;101666.00;;;6.25;84.85
74778;BME280;63298;53.164;8.610;2023-01-10T08:03:38;101644.66;;;6.20;85.33
74778;BME280;63298;53.164;8.610;2023-01-10T08:06:06;101628.09;;;6.28;84.15
74778;BME280;63298;53.164;8.610;2023-01-10T08:08:33;101614.41;;;6.28;85.02
74778;BME280;63298;53.164;8.610;2023-01-10T08:10:58;101617.72;;;6.24;84.31
74778;BME280;63298;53.164;8.610;2023-01-10T08:13:24;101634.44;;;6.29;84.24
74778;BME280;63298;53.164;8.610;2023-01-10T08:15:49;101614.53;;;6.20;84.22
74778;BME280;63298;53.164;8.610;2023-01-10T08:18:15;101617.91;;;6.22;84.03
74778;BME280;63298;53.164;8.610;2023-01-10T08:20:40;101623.59;;;6.21;84.71
74778;BME280;63298;53.164;8.610;2023-01-10T08:23:05;101634.34;;;6.22;85.21
74778;BME280;63298;53.164;8.610;2023-01-10T08:25:31;101623.88;;;6.26;85.00
74778;BME280;63298;53.164;8.610;2023-01-10T08:27:56;101628.50;;;6.25;84.07
74778;BME280;63298;53.164;8.610;2023-01-10T08:30:21;101632.84;;;6.20;84.42
74778;BME280;63298;53.164;8.610;2023-01-10T08:32:47;101641.53;;;6.23;84.79
74778;BME280;63298;53.164;8.610;2023-01-10T08:35:12;101651.44;;;6.24;84.40
74778;BME280;63298;53.164;8.610;2023-01-10T08:37:38;101659.00;;;6.22;84.44
74778;BME280;63298;53.164;8.610;2023-01-10T08:40:04;101664.13;;;6.25;83.92
74778;BME280;63298;53.164;8.610;2023-01-10T08:42:29;101664.88;;;6.19;84.53
74778;BME280;63298;53.164;8.610;2023-01-10T08:44:54;101678.00;;;6.24;84.43
74778;BME280;63298;53.164;8.610;2023-01-10T08:47:20;101684.31;;;6.24;84.71
74778;BME280;63298;53.164;8.610;2023-01-10T08:49:45;101690.47;;;6.26;84.77
74778;BME280;63298;53.164;8.610;2023-01-10T08:52:10;101679.59;;;6.18;84.60
74778;BME280;63298;53.164;8.610;2023-01-10T08:54:36;101684.50;;;6.23;84.68
74778;BME280;63298;53.164;8.610;2023-01-10T08:57:01;101694.25;;;6.25;85.08
74778;BME280;63298;53.164;8.610;2023-01-10T08:59:27;101701.63;;;6.25;85.01
74778;BME280;63298;53.164;8.610;2023-01-10T09:01:52;101691.31;;;6.27;85.01
74778;BME280;63298;53.164;8.610;2023-01-10T09:04:17;101676.78;;;6.26;85.11
74778;BME280;63298;53.164;8.610;2023-01-10T09:06:43;101691.97;;;6.29;85.30
74778;BME280;63298;53.164;8.610;2023-01-10T09:09:08;101692.44;;;6.32;85.15
74778;BME280;63298;53.164;8.610;2023-01-10T09:11:34;101687.16;;;6.31;85.00
74778;BME280;63298;53.164;8.610;2023-01-10T09:13:59;101699.53;;;6.41;84.83
74778;BME280;63298;53.164;8.610;2023-01-10T09:16:25;101696.31;;;6.38;85.47
74778;BME280;63298;53.164;8.610;2023-01-10T09:18:50;101705.41;;;6.38;85.26
74778;BME280;63298;53.164;8.610;2023-01-10T09:21:15;101705.00;;;6.41;85.06
74778;BME280;63298;53.164;8.610;2023-01-10T09:23:41;101705.00;;;6.41;85.08
74778;BME280;63298;53.164;8.610;2023-01-10T09:26:06;101708.03;;;6.46;85.28
74778;BME280;63298;53.164;8.610;2023-01-10T09:28:32;101691.81;;;6.45;85.32
74778;BME280;63298;53.164;8.610;2023-01-10T09:30:57;101690.38;;;6.49;85.07
74778;BME280;63298;53.164;8.610;2023-01-10T09:33:22;101702.47;;;6.55;85.06
74778;BME280;63298;53.164;8.610;2023-01-10T09:35:48;101709.94;;;6.61;84.73
74778;BME280;63298;53.164;8.610;2023-01-10T09:38:15;101702.00;;;6.66;85.32
74778;BME280;63298;53.164;8.610;2023-01-10T09:43:35;101703.50;;;6.68;85.09
74778;BME280;63298;53.164;8.610;2023-01-10T09:46:36;101715.47;;;6.82;84.90
74778;BME280;63298;53.164;8.610;2023-01-10T09:51:40;101712.28;;;6.78;85.00
74778;BME280;63298;53.164;8.610;2023-01-10T09:54:16;101713.78;;;6.81;84.78
74778;BME280;63298;53.164;8.610;2023-01-10T09:56:43;101724.19;;;6.85;84.91
74778;BME280;63298;53.164;8.610;2023-01-10T09:59:14;101733.47;;;6.84;84.89
74778;BME280;63298;53.164;8.610;2023-01-10T10:01:41;101744.63;;;6.83;84.55
74778;BME280;63298;53.164;8.610;2023-01-10T10:04:22;101748.78;;;6.79;85.17
74778;BME280;63298;53.164;8.610;2023-01-10T10:06:51;101747.94;;;6.78;84.52
74778;BME280;63298;53.164;8.610;2023-01-10T10:09:25;101741.59;;;6.78;85.05
74778;BME280;63298;53.164;8.610;2023-01-10T10:14:49;101742.91;;;6.82;85.11
74778;BME280;63298;53.164;8.610;2023-01-10T10:17:40;101747.81;;;6.86;85.41
74778;BME280;63298;53.164;8.610;2023-01-10T10:34:22;101762.84;;;7.05;84.81
74778;BME280;63298;53.164;8.610;2023-01-10T10:37:01;101756.88;;;7.02;85.32
74778;BME280;63298;53.164;8.610;2023-01-10T10:39:43;101760.31;;;7.04;84.90
74778;BME280;63298;53.164;8.610;2023-01-10T10:42:14;101764.19;;;7.09;84.54
74778;BME280;63298;53.164;8.610;2023-01-10T10:44:52;101765.66;;;7.12;85.14
74778;BME280;63298;53.164;8.610;2023-01-10T10:47:20;101768.31;;;7.20;84.28
74778;BME280;63298;53.164;8.610;2023-01-10T10:49:53;101758.97;;;7.14;84.68
74778;BME280;63298;53.164;8.610;2023-01-10T10:52:28;101764.72;;;7.19;84.46
74778;BME280;63298;53.164;8.610;2023-01-10T10:54:54;101763.47;;;7.22;84.78
74778;BME280;63298;53.164;8.610;2023-01-10T10:57:24;101759.97;;;7.28;84.49
74778;BME280;63298;53.164;8.610;2023-01-10T10:59:50;101762.31;;;7.31;84.50
74778;BME280;63298;53.164;8.610;2023-01-10T11:02:30;101756.63;;;7.32;84.31
74778;BME280;63298;53.164;8.610;2023-01-10T11:05:02;101764.97;;;7.39;84.01
74778;BME280;63298;53.164;8.610;2023-01-10T11:07:32;101742.91;;;7.32;84.19
74778;BME280;63298;53.164;8.610;2023-01-10T11:09:58;101748.53;;;7.46;84.37
74778;BME280;63298;53.164;8.610;2023-01-10T11:12:30;101749.66;;;7.51;83.68
74778;BME280;63298;53.164;8.610;2023-01-10T11:14:57;101751.19;;;7.54;83.66
74778;BME280;63298;53.164;8.610;2023-01-10T11:17:30;101746.56;;;7.54;83.97
74778;BME280;63298;53.164;8.610;2023-01-10T11:20:01;101743.59;;;7.56;84.15
74778;BME280;63298;53.164;8.610;2023-01-10T11:22:30;101745.16;;;7.65;83.58
74778;BME280;63298;53.164;8.610;2023-01-10T11:24:59;101745.22;;;7.71;83.40
74778;BME280;63298;53.164;8.610;2023-01-10T11:27:31;101750.13;;;7.76;83.32
74778;BME280;63298;53.164;8.610;2023-01-10T11:30:07;101736.22;;;7.77;83.17
74778;BME280;63298;53.164;8.610;2023-01-10T11:32:50;101738.78;;;7.79;82.87
74778;BME280;63298;53.164;8.610;2023-01-10T11:35:20;101745.09;;;7.79;82.73
74778;BME280;63298;53.164;8.610;2023-01-10T11:37:59;101750.47;;;7.88;82.60
74778;BME280;63298;53.164;8.610;2023-01-10T11:40:27;101761.75;;;7.99;83.03
74778;BME280;63298;53.164;8.610;2023-01-10T11:42:54;101746.78;;;8.02;82.60
74778;BME280;63298;53.164;8.610;2023-01-10T11:45:22;101747.91;;;8.07;82.18
74778;BME280;63298;53.164;8.610;2023-01-10T11:47:57;101728.00;;;8.05;81.74
74778;BME280;63298;53.164;8.610;2023-01-10T11:50:27;101739.47;;;8.09;82.24
74778;BME280;63298;53.164;8.610;2023-01-10T11:52:54;101736.72;;;8.09;81.60
74778;BME280;63298;53.164;8.610;2023-01-10T11:55:22;101730.31;;;8.02;81.47
74778;BME280;63298;53.164;8.610;2023-01-10T12:00:20;101731.59;;;8.06;81.33
74778;BME280;63298;53.164;8.610;2023-01-10T12:02:45;101729.72;;;8.06;81.74
74778;BME280;63298;53.164;8.610;2023-01-10T12:05:19;101724.66;;;8.10;81.91
74778;BME280;63298;53.164;8.610;2023-01-10T12:08:04;101730.63;;;8.13;80.92
74778;BME280;63298;53.164;8.610;2023-01-10T12:10:30;101725.75;;;8.15;81.70
74778;BME280;63298;53.164;8.610;2023-01-10T12:12:58;101729.81;;;8.19;81.42
74778;BME280;63298;53.164;8.610;2023-01-10T12:15:29;101718.38;;;8.16;81.61
74778;BME280;63298;53.164;8.610;2023-01-10T12:17:57;101730.66;;;8.20;81.44
74778;BME280;63298;53.164;8.610;2023-01-10T12:20:26;101729.81;;;8.19;81.07
74778;BME280;63298;53.164;8.610;2023-01-10T12:23:19;101724.72;;;8.16;80.47
74778;BME280;63298;53.164;8.610;2023-01-10T12:25:47;101729.97;;;8.11;81.38
74778;BME280;63298;53.164;8.610;2023-01-10T12:28:17;101740.34;;;8.16;81.18
74778;BME280;63298;53.164;8.610;2023-01-10T12:30:46;101721.06;;;8.09;81.75
74778;BME280;63298;53.164;8.610;2023-01-10T12:33:27;101737.34;;;8.11;81.28
74778;BME280;63298;53.164;8.610;2023-01-10T12:39:01;101715.53;;;8.03;80.83
74778;BME280;63298;53.164;8.610;2023-01-10T12:44:20;101721.66;;;8.05;80.76
74778;BME280;63298;53.164;8.610;2023-01-10T12:46:50;101716.63;;;8.08;81.59
74778;BME280;63298;53.164;8.610;2023-01-10T12:49:34;101718.72;;;8.06;81.21
74778;BME280;63298;53.164;8.610;2023-01-10T12:52:13;101716.63;;;8.08;80.55
74778;BME280;63298;53.164;8.610;2023-01-10T12:54:40;101714.50;;;8.10;81.10
74778;BME280;63298;53.164;8.610;2023-01-10T12:57:22;101713.22;;;8.06;80.69
74778;BME280;63298;53.164;8.610;2023-01-10T12:59:48;101709.63;;;8.06;81.21
74778;BME280;63298;53.164;8.610;2023-01-10T13:02:18;101719.16;;;8.10;81.17
74778;BME280;63298;53.164;8.610;2023-01-10T13:04:50;101712.81;;;8.09;81.21
74778;BME280;63298;53.164;8.610;2023-01-10T13:07:17;101707.13;;;8.11;81.46
74778;BME280;63298;53.164;8.610;2023-01-10T13:09:44;101717.94;;;8.12;80.85
74778;BME280;63298;53.164;8.610;2023-01-10T13:12:19;101705.41;;;8.10;80.86
74778;BME280;63298;53.164;8.610;2023-01-10T13:17:18;101702.47;;;8.11;81.22
74778;BME280;63298;53.164;8.610;2023-01-10T13:22:39;101703.34;;;8.12;80.95
74778;BME280;63298;53.164;8.610;2023-01-10T13:25:17;101702.88;;;8.08;81.15
74778;BME280;63298;53.164;8.610;2023-01-10T13:27:43;101695.69;;;8.07;80.87
74778;BME280;63298;53.164;8.610;2023-01-10T13:30:28;101699.66;;;8.05;81.05
74778;BME280;63298;53.164;8.610;2023-01-10T13:33:02;101697.78;;;8.05;80.74
74778;BME280;63298;53.164;8.610;2023-01-10T13:35:36;101698.19;;;8.02;80.92
74778;BME280;63298;53.164;8.610;2023-01-10T13:38:02;101697.16;;;8.03;80.38
74778;BME280;63298;53.164;8.610;2023-01-10T13:40:28;101701.78;;;8.03;81.17
74778;BME280;63298;53.164;8.610;2023-01-10T13:49:38;101691.19;;;8.00;80.83
74778;BME280;63298;53.164;8.610;2023-01-10T13:51:27;101674.69;;;8.00;80.77
74778;BME280;63298;53.164;8.610;2023-01-10T13:53:57;101675.97;;;7.97;80.50
74778;BME280;63298;53.164;8.610;2023-01-10T13:56:39;101668.94;;;7.95;80.60
74778;BME280;63298;53.164;8.610;2023-01-10T14:01:51;101671.06;;;7.93;80.56
74778;BME280;63298;53.164;8.610;2023-01-10T14:04:19;101668.91;;;7.88;80.43
74778;BME280;63298;53.164;8.610;2023-01-10T14:07:01;101662.38;;;7.89;80.13
74778;BME280;63298;53.164;8.610;2023-01-10T14:09:31;101660.25;;;7.91;80.14
74778;BME280;63298;53.164;8.610;2023-01-10T14:11:58;101660.88;;;7.87;80.28
74778;BME280;63298;53.164;8.610;2023-01-10T14:17:52;101677.75;;;7.84;79.70
74778;BME280;63298;53.164;8.610;2023-01-10T14:20:06;101675.00;;;7.84;80.33
74778;BME280;63298;53.164;8.610;2023-01-10T14:22:56;101675.59;;;7.79;80.66
74778;BME280;63298;53.164;8.610;2023-01-10T14:25:24;101673.22;;;7.76;79.86
74778;BME280;63298;53.164;8.610;2023-01-10T14:27:51;101669.44;;;7.77;80.58